»·PEaware :: N35CF KPMD-KNZY

N35CF :: KPMD-KNZY

FLIGHT INFORMATION

Flight Status: Arrived
Operator: Privately registered:
United States
More flights under this callsign
Pilot: Todd C. (18613)
Aircraft: BEECH AIRCRAFT A90-E90 KING AIR
(BE9L)
More flights by this aircraft type
Origin: KPMD Palmdale AF Plant 42
United States
Destination: KNZY North Island NAS
United States
More flights between these airports :: More routes between these airports
Route: +FISCH V197 PDZ V186 HAILE
File this flight plan on PilotEdge
Remarks:
Altitude:
(Current/Filed)
17,000ft
Speed:
(Current/Filed)
230kts
Departed: 11-Feb-19 05:18 PM
Arrived: 11-Feb-19 06:14 PM
Distance/Time
Traveled:
124nm/0:56
Distance/Time
To Go:
Arrived

Flight Plot

Page will automatically refresh every two minutes.

Flight plan parsing failed; only flown route is shown


Map Options




Map Legend


Flown Route
Filed Route
Departure Airport
Arrival Airport
Navaid (VOR, NDB)
Fix

Horizontal Profiles

Position Reports

Time Latitude Longitude Heading Altitude Ground
Speed
11-Feb-19 16:58 34.638856 -118.067867 269 2490ft 0kts
11-Feb-19 16:59 34.638856 -118.067867 270 2490ft 0kts
11-Feb-19 17:00 34.638856 -118.067867 269 2490ft 0kts
11-Feb-19 17:01 34.638856 -118.067867 269 2490ft 0kts
11-Feb-19 17:02 34.638856 -118.067867 269 2490ft 0kts
11-Feb-19 17:03 34.638856 -118.067867 269 2490ft 0kts
11-Feb-19 17:04 34.638856 -118.067867 269 2490ft 0kts
11-Feb-19 17:05 34.638856 -118.067867 269 2490ft 0kts
11-Feb-19 17:06 34.638856 -118.067867 269 2490ft 0kts
11-Feb-19 17:07 34.638856 -118.067867 269 2490ft 0kts
11-Feb-19 17:08 34.638856 -118.067867 269 2490ft 0kts
11-Feb-19 17:09 34.638856 -118.067867 269 2490ft 0kts
11-Feb-19 17:10 34.638859 -118.069577 270 2490ft 15kts
11-Feb-19 17:11 34.637490 -118.071866 180 2492ft 10kts
11-Feb-19 17:13 34.635860 -118.069091 83 2495ft 26kts
11-Feb-19 17:14 34.638605 -118.061874 125 2490ft 13kts
11-Feb-19 17:15 34.637889 -118.061186 144 2490ft 0kts
11-Feb-19 17:16 34.637889 -118.061186 144 2490ft 0kts
11-Feb-19 17:17 34.636908 -118.060886 231 2490ft 13kts
11-Feb-19 17:18 34.621120 -118.086233 250 3391ft 112kts
11-Feb-19 17:19 34.651220 -118.101318 345 4933ft 135kts
11-Feb-19 17:20 34.677559 -118.122201 300 6523ft 112kts
11-Feb-19 17:21 34.697040 -118.151762 299 7874ft 114kts
11-Feb-19 17:22 34.719734 -118.179623 304 9061ft 121kts
11-Feb-19 17:23 34.748235 -118.221340 304 8934ft 191kts
11-Feb-19 17:24 34.787320 -118.268595 312 9408ft 189kts
11-Feb-19 17:25 34.779784 -118.304870 181 10449ft 173kts
11-Feb-19 17:26 34.755444 -118.249646 97 11023ft 223kts
11-Feb-19 17:27 34.733150 -118.184204 153 10958ft 222kts
11-Feb-19 17:28 34.685296 -118.134352 138 10954ft 232kts
11-Feb-19 17:29 34.641923 -118.074823 138 10954ft 235kts
11-Feb-19 17:30 34.587815 -118.039389 167 10954ft 221kts
11-Feb-19 17:31 34.530291 -118.011461 165 10957ft 222kts
11-Feb-19 17:31 34.482464 -117.987294 165 10967ft 223kts
11-Feb-19 17:33 34.415557 -117.953180 164 10990ft 224kts
11-Feb-19 17:34 34.357499 -117.923539 164 11011ft 226kts
11-Feb-19 17:34 34.309295 -117.898952 164 11022ft 228kts
11-Feb-19 17:35 34.250075 -117.868778 164 11032ft 229kts
11-Feb-19 17:36 34.193222 -117.839760 165 11770ft 203kts
11-Feb-19 17:37 34.142508 -117.813952 167 12760ft 186kts
11-Feb-19 17:38 34.090335 -117.792711 172 13039ft 203kts
11-Feb-19 17:39 34.046299 -117.740901 130 13038ft 237kts
11-Feb-19 17:40 34.006118 -117.674330 134 13036ft 239kts
11-Feb-19 17:41 33.965506 -117.607515 133 13037ft 241kts
11-Feb-19 17:42 33.924839 -117.540118 133 13038ft 241kts
11-Feb-19 17:43 33.874257 -117.490859 154 13041ft 230kts
11-Feb-19 17:44 33.820464 -117.446153 153 13041ft 231kts
11-Feb-19 17:45 33.766783 -117.400628 152 13041ft 231kts
11-Feb-19 17:46 33.713226 -117.355067 152 13041ft 231kts
11-Feb-19 17:47 33.659396 -117.309412 153 12858ft 236kts
11-Feb-19 17:48 33.605751 -117.263862 153 12851ft 231kts
11-Feb-19 17:49 33.552924 -117.219086 153 12854ft 230kts
11-Feb-19 17:50 33.499966 -117.174263 153 12855ft 230kts
11-Feb-19 17:51 33.444744 -117.144323 183 12853ft 211kts
11-Feb-19 17:52 33.386040 -117.135357 179 12849ft 214kts
11-Feb-19 17:53 33.327002 -117.123420 179 12846ft 214kts
11-Feb-19 17:54 33.269993 -117.099387 151 12752ft 235kts
11-Feb-19 17:55 33.213340 -117.050903 151 11621ft 252kts
11-Feb-19 17:56 33.155450 -117.003188 151 10442ft 247kts
11-Feb-19 17:57 33.098883 -116.957997 151 9301ft 240kts
11-Feb-19 17:58 33.042917 -116.915577 151 8185ft 234kts
11-Feb-19 17:59 32.987450 -116.875896 151 7102ft 230kts
11-Feb-19 18:00 32.931035 -116.855569 193 6464ft 220kts
11-Feb-19 18:01 32.872020 -116.883019 191 5653ft 228kts
11-Feb-19 18:02 32.815516 -116.857663 156 5331ft 228kts
11-Feb-19 18:03 32.760752 -116.869596 207 4764ft 193kts
11-Feb-19 18:04 32.716840 -116.901744 212 4122ft 182kts
11-Feb-19 18:05 32.684504 -116.938157 226 3493ft 139kts
11-Feb-19 18:06 32.682133 -116.978104 289 3345ft 136kts
11-Feb-19 18:07 32.693652 -117.021648 285 2986ft 140kts
11-Feb-19 18:08 32.703480 -117.066074 283 2167ft 134kts
11-Feb-19 18:09 32.713634 -117.108781 286 1423ft 127kts
11-Feb-19 18:10 32.723939 -117.150522 285 757ft 126kts
11-Feb-19 18:11 32.730907 -117.188650 233 448ft 103kts
11-Feb-19 18:12 32.709687 -117.211758 192 55ft 101kts
11-Feb-19 18:13 32.696241 -117.216182 193 13ft 32kts
11-Feb-19 18:14 32.695570 -117.213240 15 16ft 0kts

Navigation Log

Ident Type
Flight plan parsing failed, navigation log unavailable